Time;durP1;ratioP1;P1;durP2;ratioP2;P2;SDS_P1;SDS_P2;PMS_P1;PMS_P2;Temp;Humidity;BMP_temperature;BMP_pressure;BME280_temperature;BME280_humidity;BME280_pressure;Samples;Min_cycle;Max_cycle;Signal;HPM_P1;HPM_P2
2023/07/06 00:01:06;;;;;;;26.13;22.60;;;;;;;19.90;79.19;94848.97;5119536;28;20195;-70
2023/07/06 00:03:33;;;;;;;16.55;14.27;;;;;;;19.95;78.87;94848.50;5119204;28;20527;-70
2023/07/06 00:06:02;;;;;;;10.77;8.90;;;;;;;20.02;78.22;94842.00;5119162;28;20188;-70
2023/07/06 00:08:29;;;;;;;9.85;8.85;;;;;;;20.11;77.55;94836.69;5119351;28;20195;-69
2023/07/06 00:10:57;;;;;;;6.80;6.28;;;;;;;20.10;77.37;94837.91;5118367;28;20195;-69
2023/07/06 00:13:25;;;;;;;7.68;7.03;;;;;;;20.12;77.45;94838.28;5119165;27;20195;-69
2023/07/06 00:15:59;;;;;;;9.20;8.18;;;;;;;20.11;77.48;94834.66;5118310;28;20196;-69
2023/07/06 00:18:28;;;;;;;9.00;8.10;;;;;;;20.17;77.77;94830.19;5119022;28;20597;-70
2023/07/06 00:20:55;;;;;;;31.00;22.67;;;;;;;20.17;77.33;94830.19;5118264;28;20196;-70
2023/07/06 00:23:23;;;;;;;37.60;27.80;;;;;;;20.15;78.25;94831.81;5118776;28;20199;-70
2023/07/06 00:25:50;;;;;;;32.85;26.23;;;;;;;20.15;78.80;94837.41;5117847;28;20683;-70
2023/07/06 00:28:24;;;;;;;39.92;30.92;;;;;;;20.09;78.38;94831.50;5118769;28;20243;-70
2023/07/06 00:30:57;;;;;;;29.65;24.20;;;;;;;20.10;78.55;94824.69;5118064;28;20202;-70
2023/07/06 00:33:28;;;;;;;34.88;25.75;;;;;;;20.12;78.49;94827.09;5117301;28;20235;-70
2023/07/06 00:35:58;;;;;;;28.55;22.33;;;;;;;20.10;79.10;94821.09;5118908;28;20188;-70
2023/07/06 00:38:27;;;;;;;22.88;18.15;;;;;;;20.08;79.46;94817.91;5118207;28;20604;-71
2023/07/06 00:40:57;;;;;;;13.20;10.52;;;;;;;20.07;79.05;94816.34;5117854;28;20200;-70
2023/07/06 00:43:27;;;;;;;8.80;7.90;;;;;;;20.12;78.88;94822.28;5118547;28;20267;-71
2023/07/06 00:45:59;;;;;;;27.33;21.63;;;;;;;20.11;79.58;94817.09;5117862;28;20599;-70
2023/07/06 00:48:33;;;;;;;28.67;21.65;;;;;;;20.14;80.24;94821.84;5117919;28;20202;-70
2023/07/06 00:51:09;;;;;;;30.38;24.38;;;;;;;20.13;80.55;94818.25;5118653;28;20237;-70
2023/07/06 00:53:38;;;;;;;39.58;32.83;;;;;;;20.10;80.58;94812.72;5117349;28;20615;-70
2023/07/06 00:56:06;;;;;;;52.55;42.35;;;;;;;20.05;80.23;94811.19;5117749;28;20191;-70
2023/07/06 00:58:36;;;;;;;50.42;39.67;;;;;;;20.05;80.16;94818.78;5118490;28;20223;-70
2023/07/06 01:01:07;;;;;;;44.08;34.42;;;;;;;20.05;80.01;94813.97;5117526;28;20207;-70
2023/07/06 01:03:44;;;;;;;35.38;29.33;;;;;;;20.08;79.98;94813.13;5117706;28;20207;-70
2023/07/06 01:06:17;;;;;;;40.58;32.50;;;;;;;20.06;80.41;94815.56;5117439;28;20195;-70
2023/07/06 01:08:46;;;;;;;42.15;32.67;;;;;;;20.01;81.42;94804.03;5118185;28;20308;-70
2023/07/06 01:11:14;;;;;;;35.08;26.58;;;;;;;20.00;81.33;94799.63;5117969;28;20619;-70
2023/07/06 01:13:49;;;;;;;29.60;21.88;;;;;;;20.01;81.05;94798.41;5117588;28;20248;-69
2023/07/06 01:16:26;;;;;;;31.33;23.65;;;;;;;20.05;81.49;94796.38;5117699;28;20226;-69
2023/07/06 01:18:59;;;;;;;30.58;24.40;;;;;;;20.02;81.26;94791.63;5116781;28;20203;-70
2023/07/06 01:21:33;;;;;;;30.05;23.42;;;;;;;20.03;81.44;94790.41;5117562;28;20210;-69
2023/07/06 01:24:14;;;;;;;21.60;18.38;;;;;;;19.98;81.02;94788.09;5117867;28;20196;-69
2023/07/06 01:27:14;;;;;;;23.83;17.55;;;;;;;19.99;81.30;94790.47;5117948;28;20188;-69
2023/07/06 01:30:06;;;;;;;20.77;16.25;;;;;;;19.96;81.54;94791.28;5117834;28;20190;-69
2023/07/06 01:32:37;;;;;;;24.48;20.42;;;;;;;19.93;81.89;94792.13;5116842;28;20196;-70
2023/07/06 01:35:12;;;;;;;27.95;21.52;;;;;;;19.91;81.57;94794.56;5116736;28;20218;-70
2023/07/06 01:37:43;;;;;;;23.10;18.42;;;;;;;19.93;82.31;94794.94;5117380;28;20595;-69
2023/07/06 01:40:11;;;;;;;15.65;13.95;;;;;;;19.94;82.10;94783.31;5116843;28;20199;-70
2023/07/06 01:42:40;;;;;;;16.20;14.50;;;;;;;19.97;81.45;94787.28;5117572;28;20191;-70
2023/07/06 01:45:10;;;;;;;14.60;13.10;;;;;;;19.98;81.61;94794.47;5117640;28;20186;-70
2023/07/06 01:47:41;;;;;;;13.90;12.50;;;;;;;20.00;82.00;94791.25;5117457;28;20188;-70
2023/07/06 01:50:10;;;;;;;13.50;11.98;;;;;;;19.98;82.46;94797.28;5117631;28;20195;-70
2023/07/06 01:53:05;;;;;;;13.27;11.88;;;;;;;19.95;82.33;94793.31;5117416;28;20195;-70
2023/07/06 01:55:40;;;;;;;13.68;11.13;;;;;;;19.93;82.45;94797.72;5113149;28;20219;-70
2023/07/06 01:58:11;;;;;;;11.10;9.65;;;;;;;19.91;82.56;94797.38;5117394;28;20195;-70
2023/07/06 02:00:44;;;;;;;20.17;16.98;;;;;;;19.85;82.91;94794.22;5116333;28;20191;-70
2023/07/06 02:03:13;;;;;;;24.58;21.98;;;;;;;19.80;82.88;94791.91;5116697;28;20200;-69
2023/07/06 02:05:41;;;;;;;23.25;20.75;;;;;;;19.77;83.03;94797.56;5116162;28;20219;-70
2023/07/06 02:08:10;;;;;;;21.13;18.92;;;;;;;19.76;83.12;94793.19;5116209;28;20195;-69
2023/07/06 02:10:38;;;;;;;26.80;24.10;;;;;;;19.73;82.60;94791.22;5116716;28;20215;-69
2023/07/06 02:13:05;;;;;;;26.98;24.17;;;;;;;19.67;83.06;94793.66;5116106;28;20195;-69
2023/07/06 02:15:33;;;;;;;26.17;23.48;;;;;;;19.66;82.94;94797.69;5115863;28;20227;-69
2023/07/06 02:18:01;;;;;;;25.42;23.00;;;;;;;19.65;82.89;94791.28;5115883;28;20195;-69
2023/07/06 02:20:31;;;;;;;15.65;14.05;;;;;;;19.63;82.83;94793.72;5115986;28;20199;-70
2023/07/06 02:22:58;;;;;;;13.52;12.15;;;;;;;19.65;83.58;94791.28;5115749;28;20188;-70
2023/07/06 02:25:24;;;;;;;10.40;9.40;;;;;;;19.63;82.56;94790.91;5115885;28;20260;-70
2023/07/06 02:27:51;;;;;;;9.68;8.75;;;;;;;19.62;82.27;94797.72;5115843;28;20235;-70
2023/07/06 02:30:18;;;;;;;9.15;8.25;;;;;;;19.62;81.69;94792.13;5116724;28;20184;-70
2023/07/06 02:32:47;;;;;;;8.52;7.72;;;;;;;19.61;81.79;94792.53;5116518;28;20188;-70
2023/07/06 02:35:13;;;;;;;8.63;7.82;;;;;;;19.59;81.90;94790.13;5115417;28;20231;-70
2023/07/06 02:37:42;;;;;;;8.57;7.85;;;;;;;19.58;81.80;94785.75;5115750;28;20207;-70
2023/07/06 02:40:10;;;;;;;8.57;7.78;;;;;;;19.55;81.19;94788.59;5116529;28;20188;-70
2023/07/06 02:42:37;;;;;;;9.52;7.55;;;;;;;19.54;81.49;94784.22;5115565;28;20192;-70
2023/07/06 02:45:05;;;;;;;8.00;7.30;;;;;;;19.53;81.14;94775.00;5116382;28;20180;-70
2023/07/06 02:47:33;;;;;;;8.07;7.28;;;;;;;19.52;81.32;94778.25;5116355;28;20202;-70
2023/07/06 02:50:03;;;;;;;9.35;7.47;;;;;;;19.51;81.50;94776.66;5115604;28;20200;-70
2023/07/06 02:52:29;;;;;;;7.85;7.25;;;;;;;19.50;81.78;94781.47;5116310;28;20175;-70
2023/07/06 02:54:58;;;;;;;8.65;7.60;;;;;;;19.47;82.48;94773.91;5115265;28;20219;-70
2023/07/06 02:57:28;;;;;;;8.25;7.40;;;;;;;19.46;82.80;94780.69;5116209;28;20207;-70
2023/07/06 02:59:56;;;;;;;8.57;7.78;;;;;;;19.45;82.70;94779.09;5115871;28;20199;-69
2023/07/06 03:02:22;;;;;;;8.45;7.60;;;;;;;19.46;82.88;94789.06;5116363;28;20180;-69
2023/07/06 03:04:53;;;;;;;8.68;7.80;;;;;;;19.45;82.31;94782.69;5115122;28;20195;-70
2023/07/06 03:07:23;;;;;;;9.57;8.57;;;;;;;19.41;82.19;94773.56;5115359;28;20227;-71
2023/07/06 03:09:53;;;;;;;9.02;8.13;;;;;;;19.39;82.55;94773.19;5114778;28;20611;-69
2023/07/06 03:12:29;;;;;;;7.97;7.07;;;;;;;19.40;82.56;94774.00;5116025;28;20184;-69
2023/07/06 03:14:59;;;;;;;8.52;7.72;;;;;;;19.40;82.21;94776.78;5114997;28;20310;-69
2023/07/06 03:17:28;;;;;;;8.32;7.35;;;;;;;19.42;82.29;94765.97;5114702;28;20544;-68
2023/07/06 03:19:57;;;;;;;8.55;7.55;;;;;;;19.45;82.04;94767.91;5114957;28;20215;-68
2023/07/06 03:22:25;;;;;;;8.95;8.15;;;;;;;19.46;82.01;94777.91;5115003;28;20207;-68
2023/07/06 03:24:53;;;;;;;8.27;7.50;;;;;;;19.48;81.62;94770.69;5114785;28;20189;-68
2023/07/06 03:27:25;;;;;;;9.50;8.70;;;;;;;19.47;81.50;94769.09;5115128;28;20246;-68
2023/07/06 03:29:56;;;;;;;9.80;8.90;;;;;;;19.43;82.08;94771.16;5114578;28;20183;-69
2023/07/06 03:32:27;;;;;;;10.13;8.50;;;;;;;19.42;82.31;94769.53;5115780;28;20270;-69
2023/07/06 03:34:54;;;;;;;9.38;8.43;;;;;;;19.45;82.63;94768.72;5115208;28;20234;-69
2023/07/06 03:37:28;;;;;;;9.13;8.27;;;;;;;19.45;82.87;94779.91;5115675;28;20183;-69
2023/07/06 03:39:58;;;;;;;9.48;8.48;;;;;;;19.46;82.52;94783.47;5114908;28;20191;-67
2023/07/06 03:42:34;;;;;;;8.52;7.80;;;;;;;19.52;82.53;94767.06;5115606;28;20184;-68
2023/07/06 03:45:05;;;;;;;9.13;8.20;;;;;;;19.55;82.91;94769.81;5114381;28;20209;-67
2023/07/06 03:47:33;;;;;;;12.90;11.32;;;;;;;19.51;82.77;94769.06;5115610;28;20188;-67
2023/07/06 03:50:02;;;;;;;31.88;28.88;;;;;;;19.42;82.91;94768.75;5114987;28;20202;-67
2023/07/06 03:52:38;;;;;;;44.45;40.50;;;;;;;19.39;83.28;94764.81;5115674;28;20194;-70
2023/07/06 03:55:09;;;;;;;33.65;30.55;;;;;;;19.44;83.68;94777.53;5115405;28;20207;-70
2023/07/06 03:57:40;;;;;;;21.40;19.38;;;;;;;19.44;82.98;94772.72;5114214;28;20203;-72
2023/07/06 04:00:13;;;;;;;13.45;11.90;;;;;;;19.48;83.36;94767.09;5115526;28;20184;-68
2023/07/06 04:02:42;;;;;;;9.40;8.43;;;;;;;19.53;82.85;94775.00;5114248;28;20286;-68
2023/07/06 04:05:09;;;;;;;7.80;6.85;;;;;;;19.55;82.56;94772.59;5114949;28;20199;-69
2023/07/06 04:07:37;;;;;;;8.52;7.65;;;;;;;19.57;82.24;94767.41;5115004;28;20242;-69
2023/07/06 04:10:05;;;;;;;8.20;7.40;;;;;;;19.62;82.56;94771.72;5114743;28;20199;-68
2023/07/06 04:12:33;;;;;;;8.30;7.50;;;;;;;19.65;82.07;94779.31;5114163;28;20211;-68
2023/07/06 04:15:01;;;;;;;7.90;7.05;;;;;;;19.64;82.17;94775.69;5114354;28;20662;-68
2023/07/06 04:17:29;;;;;;;8.07;7.28;;;;;;;19.65;82.34;94777.31;5115053;28;20180;-68
2023/07/06 04:19:58;;;;;;;9.80;8.13;;;;;;;19.70;82.41;94776.03;5115096;28;20214;-68
2023/07/06 04:22:25;;;;;;;7.93;7.13;;;;;;;19.72;82.61;94776.44;5114952;28;20623;-68
2023/07/06 04:24:53;;;;;;;7.97;7.15;;;;;;;19.78;82.33;94779.53;5114352;28;20203;-68
2023/07/06 04:27:20;;;;;;;8.10;7.30;;;;;;;19.82;82.38;94780.28;5114808;28;20231;-68
2023/07/06 04:29:49;;;;;;;8.02;7.07;;;;;;;19.85;81.96;94776.66;5114722;28;20199;-68
2023/07/06 04:32:21;;;;;;;9.82;7.03;;;;;;;19.87;82.00;94772.22;5117573;28;20188;-68
2023/07/06 04:34:48;;;;;;;9.23;7.10;;;;;;;19.89;82.06;94769.78;5118799;28;20199;-68
2023/07/06 04:37:16;;;;;;;8.52;7.63;;;;;;;19.93;82.58;94767.75;5119102;28;20188;-68
2023/07/06 04:39:46;;;;;;;9.32;7.72;;;;;;;19.97;82.47;94764.88;5118871;28;20200;-68
2023/07/06 04:42:14;;;;;;;7.47;6.80;;;;;;;19.99;82.13;94768.06;5118786;28;20184;-68
2023/07/06 04:44:41;;;;;;;7.32;6.63;;;;;;;20.00;81.64;94764.03;5117769;28;20253;-68
2023/07/06 04:47:09;;;;;;;7.30;6.65;;;;;;;20.01;81.66;94764.84;5118508;28;20199;-68
2023/07/06 04:49:37;;;;;;;7.80;6.97;;;;;;;20.03;81.99;94768.00;5117794;28;20199;-69
2023/07/06 04:52:11;;;;;;;10.50;9.35;;;;;;;20.04;82.81;94770.38;5118378;27;20612;-67
2023/07/06 04:54:39;;;;;;;8.50;7.47;;;;;;;20.04;82.98;94767.59;5117507;28;20207;-68
2023/07/06 04:57:08;;;;;;;8.95;8.18;;;;;;;20.04;82.71;94778.78;5118170;28;20202;-72
2023/07/06 04:59:34;;;;;;;7.78;7.07;;;;;;;20.03;82.60;94779.22;5118187;28;20195;-71
2023/07/06 05:02:02;;;;;;;7.32;6.10;;;;;;;20.01;82.01;94778.81;5117661;28;20202;-71
2023/07/06 05:04:30;;;;;;;6.80;6.20;;;;;;;20.00;81.93;94778.03;5117197;28;20612;-71
2023/07/06 05:06:58;;;;;;;7.45;6.78;;;;;;;20.01;82.36;94774.03;5117367;28;20210;-71
2023/07/06 05:09:25;;;;;;;6.53;5.90;;;;;;;20.04;82.26;94786.38;5117960;27;20211;-71
2023/07/06 05:11:53;;;;;;;6.60;6.10;;;;;;;20.05;81.88;94788.00;5117956;28;20183;-70
2023/07/06 05:14:24;;;;;;;7.38;6.68;;;;;;;20.07;82.10;94785.56;5118085;28;20244;-70
2023/07/06 05:16:51;;;;;;;7.22;6.53;;;;;;;20.11;81.92;94787.06;5117223;28;20218;-70
2023/07/06 05:19:23;;;;;;;7.07;6.32;;;;;;;20.14;82.04;94793.84;5118012;28;20195;-70
2023/07/06 05:21:52;;;;;;;6.43;5.93;;;;;;;20.15;81.63;94799.03;5117829;28;20195;-70
2023/07/06 05:24:21;;;;;;;7.25;6.45;;;;;;;20.16;81.38;94797.81;5117234;28;20196;-70
2023/07/06 05:26:49;;;;;;;7.75;7.03;;;;;;;20.19;81.50;94808.19;5117030;28;20199;-70
2023/07/06 05:29:16;;;;;;;7.88;7.13;;;;;;;20.18;81.42;94803.78;5117810;28;20192;-70
2023/07/06 05:31:46;;;;;;;8.10;7.30;;;;;;;20.19;81.06;94808.19;5117596;28;20187;-70
2023/07/06 05:34:12;;;;;;;7.68;6.97;;;;;;;20.18;80.67;94812.19;5117459;28;20240;-70
2023/07/06 05:36:39;;;;;;;8.43;7.72;;;;;;;20.19;81.40;94802.59;5117720;28;20203;-70
2023/07/06 05:39:07;;;;;;;8.10;7.35;;;;;;;20.20;81.35;94812.56;5116839;28;20192;-70
2023/07/06 05:41:38;;;;;;;8.57;7.43;;;;;;;20.20;81.27;94806.16;5116848;28;20192;-70
2023/07/06 05:44:08;;;;;;;11.00;7.93;;;;;;;20.21;81.28;94816.16;5117835;28;20271;-70
2023/07/06 05:46:34;;;;;;;8.52;7.72;;;;;;;20.22;81.74;94811.34;5117430;28;20188;-70
2023/07/06 05:49:01;;;;;;;8.73;7.90;;;;;;;20.21;81.90;94813.34;5116130;28;20208;-71
2023/07/06 05:51:29;;;;;;;9.38;7.53;;;;;;;20.24;82.05;94811.72;5116556;28;20199;-70
2023/07/06 05:53:58;;;;;;;8.02;7.32;;;;;;;20.28;81.74;94806.84;5117054;28;20504;-69
2023/07/06 05:56:25;;;;;;;8.18;6.90;;;;;;;20.34;81.82;94821.97;5116362;28;20227;-70
2023/07/06 05:58:55;;;;;;;7.35;6.75;;;;;;;20.38;81.35;94817.91;5116387;28;20202;-71
2023/07/06 06:01:24;;;;;;;8.30;7.60;;;;;;;20.44;81.55;94819.03;5117482;28;20225;-70
2023/07/06 06:03:51;;;;;;;7.95;7.25;;;;;;;20.48;81.45;94815.34;5117079;28;20206;-70
2023/07/06 06:06:21;;;;;;;8.50;7.70;;;;;;;20.54;81.52;94810.91;5116384;28;20294;-69
2023/07/06 06:08:51;;;;;;;7.45;6.75;;;;;;;20.57;81.36;94810.06;5116189;28;20200;-70
2023/07/06 06:11:19;;;;;;;7.20;6.45;;;;;;;20.62;80.82;94818.75;5116038;28;20196;-69
2023/07/06 06:13:47;;;;;;;7.45;6.80;;;;;;;20.64;80.90;94810.72;5116701;28;20264;-71
2023/07/06 06:16:16;;;;;;;7.25;6.60;;;;;;;20.66;80.51;94819.53;5116870;28;20204;-69
2023/07/06 06:18:44;;;;;;;7.60;6.85;;;;;;;20.72;80.11;94816.22;5116535;28;20176;-70
2023/07/06 06:21:12;;;;;;;7.80;6.80;;;;;;;20.73;79.87;94820.59;5116864;28;20223;-71
2023/07/06 06:23:42;;;;;;;8.93;6.53;;;;;;;20.73;79.52;94823.41;5115858;28;20196;-70
2023/07/06 06:26:10;;;;;;;7.80;7.10;;;;;;;20.72;79.69;94814.22;5116430;28;20220;-70
2023/07/06 06:28:37;;;;;;;7.88;7.22;;;;;;;20.72;79.46;94819.81;5115341;28;20242;-70
2023/07/06 06:31:07;;;;;;;7.07;6.47;;;;;;;20.72;79.20;94819.03;5116380;28;20199;-70
2023/07/06 06:33:37;;;;;;;7.22;6.55;;;;;;;20.74;78.90;94813.81;5115864;28;20195;-70
2023/07/06 06:36:07;;;;;;;7.43;6.45;;;;;;;20.83;79.85;94802.81;5116229;28;20212;-70
2023/07/06 06:38:34;;;;;;;9.25;6.75;;;;;;;20.88;79.24;94805.16;5115642;28;20289;-70
2023/07/06 06:41:11;;;;;;;7.28;6.68;;;;;;;20.92;79.32;94811.50;5116046;28;20225;-69
2023/07/06 06:43:38;;;;;;;6.70;6.00;;;;;;;20.96;79.43;94803.81;5115466;28;20299;-70
2023/07/06 06:46:06;;;;;;;6.90;6.30;;;;;;;20.98;77.97;94797.78;5116433;28;20191;-70
2023/07/06 06:48:36;;;;;;;7.63;6.50;;;;;;;21.02;78.96;94799.28;5116010;28;20260;-69
2023/07/06 06:51:07;;;;;;;6.65;6.05;;;;;;;21.12;77.91;94792.69;5115454;28;20195;-69
2023/07/06 06:53:37;;;;;;;7.32;6.68;;;;;;;21.12;77.90;94791.91;5115363;28;20202;-70
2023/07/06 06:56:09;;;;;;;6.88;6.38;;;;;;;21.11;77.28;94798.75;5115377;28;20586;-69
2023/07/06 06:58:37;;;;;;;6.93;6.25;;;;;;;21.12;76.88;94791.91;5115315;28;20209;-71
2023/07/06 07:01:09;;;;;;;6.57;5.97;;;;;;;21.12;77.03;94789.91;5115260;28;20604;-71
2023/07/06 07:03:38;;;;;;;6.88;6.30;;;;;;;21.17;77.32;94785.84;5116028;28;20249;-71
2023/07/06 07:06:12;;;;;;;6.78;6.18;;;;;;;21.19;77.50;94785.38;5116034;28;20187;-71
2023/07/06 07:08:44;;;;;;;6.97;6.38;;;;;;;21.20;76.65;94790.56;5115650;28;20622;-71
2023/07/06 07:11:19;;;;;;;6.35;5.85;;;;;;;21.18;75.82;94783.81;5115768;28;20187;-70
2023/07/06 07:13:47;;;;;;;6.63;6.03;;;;;;;21.19;75.75;94779.78;5115592;28;20183;-70
2023/07/06 07:16:19;;;;;;;5.78;5.18;;;;;;;21.26;76.77;94782.47;5115032;28;20261;-70
2023/07/06 07:18:47;;;;;;;7.22;6.53;;;;;;;21.31;76.55;94777.13;5114969;28;20624;-70
2023/07/06 07:21:22;;;;;;;6.60;6.00;;;;;;;21.36;76.47;94785.09;5115862;28;20176;-70
2023/07/06 07:23:51;;;;;;;6.20;5.60;;;;;;;21.37;75.96;94781.06;5115878;28;20192;-70
2023/07/06 07:26:30;;;;;;;6.43;5.93;;;;;;;21.39;75.46;94780.66;5114835;28;20203;-70
2023/07/06 07:28:59;;;;;;;6.68;6.07;;;;;;;21.44;76.08;94782.16;5114989;28;20547;-70
2023/07/06 07:31:31;;;;;;;6.28;5.70;;;;;;;21.48;75.72;94780.84;5115346;28;20192;-70
2023/07/06 07:33:59;;;;;;;6.35;5.65;;;;;;;21.50;75.97;94781.22;5115613;28;20244;-70
2023/07/06 07:36:29;;;;;;;6.03;5.43;;;;;;;21.55;76.42;94786.31;5114181;28;20251;-70
2023/07/06 07:38:57;;;;;;;9.23;8.43;;;;;;;21.63;76.45;94781.34;5115251;28;20191;-70
2023/07/06 07:41:25;;;;;;;6.88;6.28;;;;;;;21.66;75.43;94779.72;5115234;28;20208;-71
2023/07/06 07:43:53;;;;;;;7.03;6.43;;;;;;;21.67;75.01;94782.06;5115581;28;20244;-71
2023/07/06 07:46:22;;;;;;;8.05;6.15;;;;;;;21.70;75.77;94778.41;5114820;28;20256;-71
2023/07/06 07:48:53;;;;;;;6.60;6.07;;;;;;;21.78;75.72;94784.66;5114582;28;20198;-71
2023/07/06 07:51:23;;;;;;;5.82;5.32;;;;;;;21.79;74.71;94777.84;5115208;28;20188;-70
2023/07/06 07:53:56;;;;;;;6.47;5.97;;;;;;;21.81;74.34;94786.59;5114558;28;20192;-70
2023/07/06 07:56:24;;;;;;;5.97;5.47;;;;;;;21.81;72.29;94778.19;5115409;28;20211;-69
2023/07/06 07:58:53;;;;;;;6.85;6.28;;;;;;;21.84;73.28;94780.91;5115379;28;20196;-72
2023/07/06 08:01:20;;;;;;;6.38;5.78;;;;;;;21.89;72.42;94782.41;5114693;28;20184;-70
2023/07/06 08:03:50;;;;;;;6.53;6.00;;;;;;;21.95;73.07;94779.91;5115247;28;20183;-70
2023/07/06 08:06:19;;;;;;;6.43;5.82;;;;;;;22.00;73.16;94780.19;5117902;28;20211;-70
2023/07/06 08:08:47;;;;;;;6.10;5.60;;;;;;;;;;5119179;28;20260;-70
2023/07/06 08:11:20;;;;;;;6.30;5.65;;;;;;;22.13;73.78;94776.72;5119637;28;20260;-70
2023/07/06 08:13:50;;;;;;;6.75;6.13;;;;;;;22.23;74.62;94784.16;5118561;28;20235;-70
2023/07/06 08:16:17;;;;;;;6.85;6.25;;;;;;;22.29;72.20;94783.19;5119187;28;20219;-70
2023/07/06 08:18:45;;;;;;;6.25;5.65;;;;;;;22.33;73.09;94783.09;5119226;28;20184;-70
2023/07/06 08:21:13;;;;;;;6.53;5.93;;;;;;;22.43;73.45;94776.44;5118854;28;20184;-70
2023/07/06 08:23:49;;;;;;;7.18;6.53;;;;;;;22.51;73.26;94779.88;5119262;28;20226;-70
2023/07/06 08:26:18;;;;;;;6.95;6.35;;;;;;;22.48;72.22;94775.94;5118793;28;20562;-70
2023/07/06 08:28:51;;;;;;;6.15;5.65;;;;;;;22.48;72.05;94783.59;5118702;28;20339;-70
2023/07/06 08:31:20;;;;;;;6.30;5.70;;;;;;;22.52;72.52;94770.25;5118753;28;20520;-70
2023/07/06 08:33:50;;;;;;;6.80;6.22;;;;;;;22.59;72.32;94775.69;5118982;28;20206;-70
2023/07/06 08:36:20;;;;;;;6.80;6.20;;;;;;;22.65;71.72;94773.13;5117974;28;20207;-70
2023/07/06 08:38:47;;;;;;;6.80;6.20;;;;;;;22.70;71.08;94770.59;5118860;28;20283;-71
2023/07/06 08:41:23;;;;;;;6.47;5.90;;;;;;;22.81;70.83;94773.94;5117661;28;20194;-71
2023/07/06 08:43:53;;;;;;;6.72;5.68;;;;;;;22.95;71.10;94772.00;5117852;28;20195;-71
2023/07/06 08:46:21;;;;;;;6.43;5.82;;;;;;;23.02;69.69;94778.25;5117615;28;20607;-71
2023/07/06 08:48:48;;;;;;;7.22;6.63;;;;;;;23.09;70.39;94762.41;5117272;28;20211;-71
2023/07/06 08:51:18;;;;;;;6.82;6.22;;;;;;;23.15;68.89;94769.09;5118649;28;20180;-70
2023/07/06 08:53:54;;;;;;;7.40;6.80;;;;;;;23.18;68.92;94765.41;5118605;28;20195;-71
2023/07/06 08:56:25;;;;;;;7.18;6.47;;;;;;;23.21;68.30;94761.72;5118140;28;20296;-70
2023/07/06 08:58:54;;;;;;;6.72;6.13;;;;;;;23.27;68.52;94766.34;5118232;28;20188;-71
2023/07/06 09:01:24;;;;;;;7.40;6.70;;;;;;;23.35;69.34;94760.50;5117526;28;20203;-70
2023/07/06 09:03:55;;;;;;;6.68;5.95;;;;;;;23.46;69.07;94761.81;5117468;28;20199;-70
2023/07/06 09:06:26;;;;;;;7.47;6.78;;;;;;;23.59;70.29;94777.97;5117578;28;20256;-70
2023/07/06 09:09:03;;;;;;;6.85;6.25;;;;;;;23.69;68.60;94760.78;5117336;28;20209;-70
2023/07/06 09:11:33;;;;;;;6.97;6.38;;;;;;;23.77;67.75;94772.66;5118620;28;20195;-70
2023/07/06 09:14:10;;;;;;;8.07;6.95;;;;;;;23.86;68.54;94769.97;5118209;28;20180;-71
2023/07/06 09:16:47;;;;;;;7.20;6.60;;;;;;;23.94;68.21;94773.38;5116164;28;20228;-71
2023/07/06 09:19:16;;;;;;;8.20;7.50;;;;;;;24.05;65.25;94767.44;5117251;28;20203;-70
2023/07/06 09:21:45;;;;;;;7.70;7.10;;;;;;;23.98;65.23;94766.38;5118014;28;20204;-70
2023/07/06 09:24:12;;;;;;;8.00;7.20;;;;;;;23.92;67.00;94767.38;5117170;28;20540;-70
2023/07/06 09:26:44;;;;;;;7.68;6.97;;;;;;;23.78;65.70;94769.41;5116612;28;20195;-70
2023/07/06 09:29:15;;;;;;;7.18;6.57;;;;;;;23.75;66.14;94767.47;5118595;28;20255;-70
2023/07/06 09:31:43;;;;;;;7.88;7.20;;;;;;;23.87;68.00;94765.91;5117957;28;20218;-70
2023/07/06 09:34:25;;;;;;;8.48;7.68;;;;;;;24.02;67.63;94757.84;5117976;28;20180;-70
2023/07/06 09:36:53;;;;;;;7.65;6.90;;;;;;;24.16;65.53;94751.78;5116668;28;20214;-70
2023/07/06 09:39:20;;;;;;;8.35;7.65;;;;;;;24.27;63.59;94759.91;5117633;28;20180;-70
2023/07/06 09:41:49;;;;;;;8.30;7.50;;;;;;;24.33;64.57;94763.75;5117193;28;20657;-70
2023/07/06 09:44:18;;;;;;;8.52;7.82;;;;;;;24.45;66.26;94759.38;5116463;28;20196;-70
2023/07/06 09:46:46;;;;;;;7.80;7.05;;;;;;;24.59;65.93;94758.13;5117580;28;20188;-70
2023/07/06 09:49:17;;;;;;;7.88;7.10;;;;;;;24.65;64.92;94751.47;5117696;28;20180;-70
2023/07/06 09:51:50;;;;;;;7.72;7.03;;;;;;;24.56;63.04;94759.81;5116608;28;20628;-70
2023/07/06 09:54:19;;;;;;;8.10;7.40;;;;;;;24.43;63.35;94754.16;5116753;28;20280;-70
2023/07/06 09:56:49;;;;;;;7.38;6.68;;;;;;;24.37;63.98;94761.59;5116344;28;20223;-70
2023/07/06 09:59:17;;;;;;;8.40;7.70;;;;;;;24.39;64.18;94752.69;5116585;28;20202;-70
2023/07/06 10:01:53;;;;;;;8.85;7.97;;;;;;;24.40;63.42;94751.47;5117101;28;20179;-70
2023/07/06 10:04:42;;;;;;;7.85;7.25;;;;;;;24.34;62.90;94739.94;5117510;28;20198;-70
2023/07/06 10:07:14;;;;;;;7.78;7.07;;;;;;;24.35;63.03;94741.53;5108432;28;20581;-70
2023/07/06 10:09:45;;;;;;;7.57;6.88;;;;;;;24.36;62.39;94737.47;5117131;28;20253;-70
2023/07/06 10:12:17;;;;;;;7.80;7.20;;;;;;;24.38;64.81;94737.03;5116274;28;20183;-70
2023/07/06 10:14:50;;;;;;;8.10;6.97;;;;;;;24.40;63.44;94740.19;5115753;28;20608;-70
2023/07/06 10:17:30;;;;;;;6.93;6.32;;;;;;;24.42;63.44;94740.53;5116927;28;20203;-70
2023/07/06 10:20:05;;;;;;;7.28;6.65;;;;;;;24.39;62.85;94747.84;5116220;28;20212;-70
2023/07/06 10:22:38;;;;;;;7.05;6.53;;;;;;;24.36;61.75;94745.91;5116910;28;20194;-70
2023/07/06 10:25:18;;;;;;;7.15;6.35;;;;;;;24.40;62.66;94749.47;5115876;28;20204;-70
2023/07/06 10:27:55;;;;;;;6.60;6.05;;;;;;;24.45;60.60;94750.91;5116518;27;20299;-70
2023/07/06 10:30:31;;;;;;;7.13;6.60;;;;;;;24.50;63.68;94753.94;5116068;28;20187;-70
2023/07/06 10:33:02;;;;;;;7.05;6.45;;;;;;;24.55;62.18;94755.44;5116426;28;20188;-70
2023/07/06 10:35:32;;;;;;;6.80;6.10;;;;;;;24.58;62.16;94748.88;5115800;28;20187;-70
2023/07/06 10:37:59;;;;;;;7.45;6.65;;;;;;;24.63;62.24;94748.31;5116513;28;20218;-71
2023/07/06 10:40:29;;;;;;;7.18;6.47;;;;;;;24.85;62.80;94733.50;5115799;28;20195;-70
2023/07/06 10:43:18;;;;;;;7.45;6.45;;;;;;;25.07;64.07;94731.53;5115428;28;20203;-70
2023/07/06 10:45:46;;;;;;;7.70;6.10;;;;;;;25.23;63.42;94736.25;5116864;28;20596;-70
2023/07/06 10:48:17;;;;;;;6.82;6.20;;;;;;;25.42;62.98;94737.22;5116413;28;20184;-70
2023/07/06 10:50:49;;;;;;;9.35;6.32;;;;;;;25.58;60.35;94741.88;5115843;28;20207;-70
2023/07/06 10:53:25;;;;;;;6.80;6.30;;;;;;;25.67;60.47;94733.47;5115371;28;20192;-70
2023/07/06 10:56:04;;;;;;;6.68;6.13;;;;;;;25.77;60.30;94732.28;5115465;28;20188;-69
2023/07/06 10:58:34;;;;;;;6.60;6.00;;;;;;;25.66;60.71;94734.72;5114910;28;20219;-70
2023/07/06 11:01:11;;;;;;;7.88;7.10;;;;;;;25.62;58.46;94723.56;5115003;28;20200;-69
2023/07/06 11:03:39;;;;;;;7.90;7.10;;;;;;;25.52;58.08;94713.44;5115734;28;20203;-69
2023/07/06 11:06:10;;;;;;;6.90;6.20;;;;;;;25.40;57.81;94717.13;5116179;28;20188;-69
2023/07/06 11:09:02;;;;;;;7.47;6.78;;;;;;;25.31;58.51;94702.91;5116023;28;20191;-70
2023/07/06 11:11:29;;;;;;;7.63;6.93;;;;;;;25.29;59.14;94702.59;5116096;27;20191;-70
2023/07/06 11:14:13;;;;;;;7.30;6.60;;;;;;;25.48;60.73;94700.72;5116170;28;20195;-69
2023/07/06 11:16:49;;;;;;;7.63;6.93;;;;;;;25.61;60.57;94698.63;5114789;28;20188;-69
2023/07/06 11:19:24;;;;;;;7.85;7.15;;;;;;;25.85;63.33;94698.94;5114804;28;20195;-69
2023/07/06 11:21:53;;;;;;;7.80;7.10;;;;;;;26.06;58.37;94691.69;5114654;28;20627;-70
2023/07/06 11:24:29;;;;;;;9.02;7.95;;;;;;;26.22;62.05;94696.31;5115227;28;20188;-70
2023/07/06 11:26:58;;;;;;;8.80;7.85;;;;;;;26.32;59.94;94692.28;5115462;28;20188;-69
2023/07/06 11:29:31;;;;;;;9.07;7.40;;;;;;;26.33;58.29;94693.88;5114880;28;20200;-69
2023/07/06 11:32:10;;;;;;;8.23;7.53;;;;;;;26.42;58.47;94702.38;5115871;28;20183;-70
2023/07/06 11:34:44;;;;;;;7.80;7.10;;;;;;;26.46;58.08;94703.03;5115749;28;20183;-70
2023/07/06 11:37:21;;;;;;;8.07;7.40;;;;;;;26.63;58.93;94710.03;5115727;28;20210;-70
2023/07/06 11:39:55;;;;;;;9.43;8.50;;;;;;;26.78;57.09;94713.03;5115345;28;20196;-69
2023/07/06 11:42:33;;;;;;;8.10;7.47;;;;;;;26.88;56.65;94717.47;5114786;28;20207;-70
2023/07/06 11:45:07;;;;;;;8.38;7.57;;;;;;;26.82;55.93;94735.53;5114431;28;20205;-69
2023/07/06 11:47:53;;;;;;;6.85;6.25;;;;;;;26.57;55.40;94742.19;5097557;28;20196;-70